Time;durP1;ratioP1;P1;durP2;ratioP2;P2;SDS_P1;SDS_P2;PMS_P1;PMS_P2;Temp;Humidity;BMP_temperature;BMP_pressure;BME280_temperature;BME280_humidity;BME280_pressure;Samples;Min_cycle;Max_cycle;Signal;HPM_P1;HPM_P2
2021/12/10 00:00:54;;;;;;;2.92;0.95;;;19.10;56.10;;;;;;6150445;22;92799;-73
2021/12/10 00:03:25;;;;;;;5.20;1.10;;;19.10;56.10;;;;;;6150644;22;93035;-72
2021/12/10 00:06:06;;;;;;;2.13;1.27;;;19.10;56.10;;;;;;6150552;22;93773;-66
2021/12/10 00:08:35;;;;;;;2.30;1.05;;;19.10;56.20;;;;;;6151301;22;92794;-62
2021/12/10 00:11:04;;;;;;;4.75;1.27;;;19.10;56.10;;;;;;6152049;22;92600;-66
2021/12/10 00:13:30;;;;;;;6.00;1.27;;;19.10;56.20;;;;;;6150325;22;92701;-72
2021/12/10 00:15:56;;;;;;;2.88;0.90;;;19.10;56.20;;;;;;6146954;22;94393;-70
2021/12/10 00:18:30;;;;;;;3.50;0.90;;;19.10;56.20;;;;;;6147436;22;93292;-71
2021/12/10 00:20:58;;;;;;;4.28;1.30;;;19.10;56.30;;;;;;6147223;22;92519;-69
2021/12/10 00:23:28;;;;;;;4.70;1.00;;;19.10;56.30;;;;;;6144907;22;92686;-69
2021/12/10 00:25:54;;;;;;;5.97;1.10;;;19.00;56.20;;;;;;6144271;22;92601;-73
2021/12/10 00:28:39;;;;;;;1.52;0.80;;;19.00;56.30;;;;;;6145779;22;92749;-65
2021/12/10 00:31:20;;;;;;;3.05;0.85;;;19.10;56.40;;;;;;6146131;22;92136;-73
2021/12/10 00:36:12;;;;;;;2.78;0.98;;;19.00;56.30;;;;;;6146618;22;93087;-73
2021/12/10 00:38:39;;;;;;;6.32;1.30;;;19.00;56.30;;;;;;6145051;22;93328;-72
2021/12/10 00:41:06;;;;;;;4.00;0.90;;;19.00;56.40;;;;;;6145828;22;93868;-71
2021/12/10 00:43:33;;;;;;;3.05;0.90;;;19.00;56.40;;;;;;6146554;22;92148;-71
2021/12/10 00:45:59;;;;;;;2.88;1.00;;;19.00;56.50;;;;;;6145464;22;93337;-67
2021/12/10 00:48:25;;;;;;;2.20;0.70;;;18.90;56.40;;;;;;6145603;22;92782;-71
2021/12/10 00:50:54;;;;;;;5.15;0.93;;;18.90;56.50;;;;;;6146562;22;93329;-72
2021/12/10 00:53:20;;;;;;;2.75;1.13;;;18.90;56.50;;;;;;6145737;22;92227;-72
2021/12/10 00:55:45;;;;;;;3.13;0.98;;;18.90;56.50;;;;;;6145833;22;92915;-73
2021/12/10 00:58:13;;;;;;;2.97;0.80;;;18.90;56.50;;;;;;6146423;22;92682;-68
2021/12/10 01:00:43;;;;;;;2.60;1.27;;;18.90;56.50;;;;;;6145712;22;92996;-73
2021/12/10 01:03:12;;;;;;;4.45;1.35;;;18.90;56.50;;;;;;6146186;22;92598;-73
2021/12/10 01:05:41;;;;;;;5.75;1.00;;;18.90;56.60;;;;;;6144434;22;94549;-67
2021/12/10 01:08:07;;;;;;;2.33;0.90;;;18.90;56.60;;;;;;6144676;22;96233;-70
2021/12/10 01:10:38;;;;;;;3.13;1.10;;;18.90;56.60;;;;;;6145773;22;92579;-63
2021/12/10 01:13:08;;;;;;;5.55;1.23;;;18.90;56.60;;;;;;6144284;22;92325;-68
2021/12/10 01:24:31;;;;;;;3.72;1.02;;;18.80;56.50;;;;;;6146525;22;91546;-67
2021/12/10 01:27:01;;;;;;;4.32;1.05;;;18.80;56.60;;;;;;6145086;22;93014;-67
2021/12/10 01:29:32;;;;;;;3.72;0.73;;;18.90;56.60;;;;;;6145165;22;93941;-72
2021/12/10 01:31:59;;;;;;;4.75;0.93;;;18.80;56.60;;;;;;6144259;22;93471;-72
2021/12/10 01:34:27;;;;;;;2.75;1.00;;;18.80;56.60;;;;;;6144789;22;93227;-62
2021/12/10 01:36:53;;;;;;;3.35;0.82;;;18.80;56.60;;;;;;6145883;22;93030;-65
2021/12/10 01:39:23;;;;;;;2.97;0.70;;;18.80;56.70;;;;;;6144963;22;93786;-71
2021/12/10 01:41:56;;;;;;;3.22;1.00;;;18.80;56.60;;;;;;6145748;22;92950;-71
2021/12/10 01:44:31;;;;;;;3.25;0.95;;;18.80;56.70;;;;;;6144888;22;92956;-75
2021/12/10 01:47:00;;;;;;;1.30;0.65;;;18.80;56.70;;;;;;6144768;22;93365;-71
2021/12/10 01:49:26;;;;;;;2.85;0.88;;;18.80;56.70;;;;;;6145065;22;93129;-69
2021/12/10 01:51:52;;;;;;;1.67;0.73;;;18.70;56.60;;;;;;6144678;22;92482;-73
2021/12/10 01:54:34;;;;;;;3.28;0.70;;;18.70;56.60;;;;;;6145427;22;92543;-74
2021/12/10 01:57:05;;;;;;;3.33;0.80;;;18.70;56.60;;;;;;6145260;22;93965;-68
2021/12/10 01:59:33;;;;;;;2.25;0.88;;;18.80;56.80;;;;;;6144194;22;94999;-63
2021/12/10 02:02:04;;;;;;;2.70;0.80;;;18.70;56.60;;;;;;6145818;22;92669;-62
2021/12/10 02:04:33;;;;;;;2.78;0.63;;;18.70;56.70;;;;;;6145269;22;92454;-66
2021/12/10 02:07:00;;;;;;;3.08;0.70;;;18.70;56.70;;;;;;6145191;22;93383;-63
2021/12/10 02:09:27;;;;;;;1.73;0.68;;;18.70;56.70;;;;;;6144881;22;92693;-66
2021/12/10 02:11:53;;;;;;;2.38;0.70;;;18.70;56.70;;;;;;6145784;22;92373;-68
2021/12/10 02:14:20;;;;;;;3.03;0.80;;;18.70;56.70;;;;;;6144541;22;92244;-72
2021/12/10 02:16:47;;;;;;;1.80;0.70;;;18.70;56.70;;;;;;6144358;22;93171;-71
2021/12/10 02:19:15;;;;;;;2.63;0.63;;;18.70;56.80;;;;;;6143738;22;94971;-73
2021/12/10 02:21:41;;;;;;;3.25;0.85;;;18.70;56.80;;;;;;6143837;22;93737;-73
2021/12/10 02:24:09;;;;;;;3.67;0.90;;;18.70;56.70;;;;;;6146772;22;92669;-66
2021/12/10 02:26:40;;;;;;;3.85;1.13;;;18.70;56.80;;;;;;6145638;22;92875;-71
2021/12/10 02:29:10;;;;;;;2.80;0.70;;;18.60;56.70;;;;;;6145720;22;93018;-73
2021/12/10 02:31:36;;;;;;;1.40;0.70;;;18.60;56.70;;;;;;6147393;22;92790;-62
2021/12/10 02:34:03;;;;;;;1.95;0.70;;;18.60;56.80;;;;;;6147058;22;92787;-73
2021/12/10 02:36:30;;;;;;;2.83;0.80;;;18.60;56.70;;;;;;6145653;22;92639;-72
2021/12/10 02:38:56;;;;;;;2.75;1.08;;;18.60;56.70;;;;;;6147238;22;92129;-70
2021/12/10 02:41:27;;;;;;;2.72;0.70;;;18.60;56.70;;;;;;6146364;22;93065;-68
2021/12/10 02:43:53;;;;;;;3.55;0.60;;;18.60;56.70;;;;;;6147202;22;92692;-72
2021/12/10 02:46:19;;;;;;;3.30;0.85;;;18.60;57.00;;;;;;6145689;22;93838;-66
2021/12/10 02:48:45;;;;;;;1.83;0.63;;;18.60;56.80;;;;;;6145085;22;93771;-64
2021/12/10 02:51:12;;;;;;;1.05;0.63;;;18.60;56.70;;;;;;6146243;22;92859;-69
2021/12/10 02:53:43;;;;;;;2.40;0.70;;;18.60;56.70;;;;;;6146504;22;92322;-70
2021/12/10 02:56:11;;;;;;;2.08;0.80;;;18.60;56.80;;;;;;6147358;22;93811;-71
2021/12/10 02:58:37;;;;;;;2.65;0.70;;;18.60;56.80;;;;;;6146350;22;92247;-72
2021/12/10 03:01:16;;;;;;;1.67;0.70;;;18.60;56.80;;;;;;6145754;22;93219;-66
2021/12/10 03:03:43;;;;;;;2.97;0.63;;;18.60;56.80;;;;;;6146090;22;91472;-70
2021/12/10 03:06:11;;;;;;;2.20;0.75;;;18.60;56.80;;;;;;6145882;22;92566;-70
2021/12/10 03:08:41;;;;;;;3.20;0.85;;;18.60;56.80;;;;;;6146863;22;92492;-70
2021/12/10 03:11:08;;;;;;;3.15;0.80;;;18.60;56.80;;;;;;6146358;22;93583;-74
2021/12/10 03:13:34;;;;;;;1.60;0.60;;;18.50;56.80;;;;;;6146054;22;92344;-73
2021/12/10 03:16:00;;;;;;;2.03;0.80;;;18.50;56.80;;;;;;6146725;22;92590;-70
2021/12/10 03:18:25;;;;;;;2.15;0.70;;;18.50;56.80;;;;;;6145093;22;92687;-72
2021/12/10 03:20:51;;;;;;;1.63;0.73;;;18.50;56.80;;;;;;6145841;22;92590;-72
2021/12/10 03:23:17;;;;;;;2.17;0.82;;;18.50;56.80;;;;;;6145441;22;93129;-74
2021/12/10 03:25:43;;;;;;;2.38;0.90;;;18.50;56.80;;;;;;6144012;22;93019;-66
2021/12/10 03:28:10;;;;;;;3.53;0.70;;;18.50;56.90;;;;;;6146989;22;92888;-72
2021/12/10 03:30:42;;;;;;;3.08;0.82;;;18.50;56.90;;;;;;6147356;22;92821;-72
2021/12/10 03:33:08;;;;;;;1.38;0.55;;;18.50;56.80;;;;;;6146897;22;92502;-71
2021/12/10 03:35:42;;;;;;;0.85;0.50;;;18.50;56.90;;;;;;6145683;22;93918;-73
2021/12/10 03:38:13;;;;;;;4.47;0.85;;;18.50;56.80;;;;;;6145473;22;92428;-62
2021/12/10 03:40:39;;;;;;;2.75;0.63;;;18.50;56.90;;;;;;6146285;22;92444;-71
2021/12/10 03:43:06;;;;;;;2.33;0.70;;;18.50;56.90;;;;;;6146520;22;92187;-74
2021/12/10 03:45:36;;;;;;;1.20;0.70;;;18.50;56.90;;;;;;6145697;22;93281;-65
2021/12/10 03:48:08;;;;;;;3.38;1.15;;;18.50;56.80;;;;;;6146826;22;93301;-71
2021/12/10 03:50:34;;;;;;;1.40;0.88;;;18.40;56.90;;;;;;6146969;22;92963;-75
2021/12/10 03:53:00;;;;;;;2.88;0.80;;;18.50;56.80;;;;;;6146486;22;91855;-68
2021/12/10 03:55:27;;;;;;;2.97;0.80;;;18.50;56.90;;;;;;6145615;22;93178;-65
2021/12/10 03:57:55;;;;;;;2.33;0.80;;;18.40;56.80;;;;;;6146580;22;92710;-71
2021/12/10 04:00:24;;;;;;;1.40;0.60;;;18.40;56.80;;;;;;6145375;22;93973;-73
2021/12/10 04:02:50;;;;;;;1.42;0.68;;;18.40;56.80;;;;;;6146235;22;93899;-74
2021/12/10 04:05:16;;;;;;;1.05;0.60;;;18.40;56.80;;;;;;6146202;22;92459;-69
2021/12/10 04:07:42;;;;;;;2.65;0.60;;;18.40;56.90;;;;;;6146058;22;92621;-70
2021/12/10 04:10:10;;;;;;;1.60;0.60;;;18.40;56.90;;;;;;6145754;22;93057;-75
2021/12/10 04:12:36;;;;;;;1.10;0.60;;;18.40;56.80;;;;;;6144395;22;92728;-63
2021/12/10 04:15:04;;;;;;;1.70;0.70;;;18.40;56.90;;;;;;6144113;22;92086;-68
2021/12/10 04:17:30;;;;;;;2.20;0.80;;;18.40;56.90;;;;;;6145471;22;95858;-71
2021/12/10 04:19:56;;;;;;;1.70;0.80;;;18.40;56.90;;;;;;6146596;22;92728;-66
2021/12/10 04:22:24;;;;;;;2.45;0.90;;;18.40;56.90;;;;;;6146267;22;92427;-65
2021/12/10 04:24:50;;;;;;;1.48;0.80;;;18.40;57.40;;;;;;6144313;22;96876;-72
2021/12/10 04:27:17;;;;;;;1.67;0.57;;;18.40;56.90;;;;;;6146483;22;93814;-71
2021/12/10 04:29:44;;;;;;;1.73;0.70;;;18.40;56.90;;;;;;6145307;22;92185;-72
2021/12/10 04:32:11;;;;;;;2.08;0.90;;;18.30;56.90;;;;;;6146039;22;93031;-71
2021/12/10 04:34:38;;;;;;;1.85;0.40;;;18.40;56.90;;;;;;6145366;22;93225;-71
2021/12/10 04:37:05;;;;;;;2.22;0.68;;;18.40;57.00;;;;;;6145337;22;92894;-73
2021/12/10 04:39:34;;;;;;;1.50;0.52;;;18.30;56.90;;;;;;6145423;22;92669;-68
2021/12/10 04:42:00;;;;;;;1.42;0.60;;;18.30;57.00;;;;;;6145942;22;91843;-74
2021/12/10 04:44:26;;;;;;;1.27;0.60;;;18.30;57.00;;;;;;6144200;22;93771;-71
2021/12/10 04:46:52;;;;;;;1.58;0.52;;;18.30;57.00;;;;;;6145885;22;92792;-70
2021/12/10 04:49:18;;;;;;;3.72;0.70;;;18.30;57.00;;;;;;6146221;22;93542;-68
2021/12/10 04:51:52;;;;;;;1.73;0.50;;;18.30;57.00;;;;;;6145590;22;92668;-72
2021/12/10 04:54:20;;;;;;;1.55;0.70;;;18.30;57.00;;;;;;6144846;22;92782;-73
2021/12/10 04:56:47;;;;;;;2.95;1.02;;;18.30;57.00;;;;;;6144521;22;93324;-72
2021/12/10 04:59:17;;;;;;;1.02;0.52;;;18.30;57.00;;;;;;6145495;22;92634;-70
2021/12/10 05:01:44;;;;;;;1.05;0.50;;;18.30;57.00;;;;;;6145190;22;92679;-72
2021/12/10 05:04:12;;;;;;;1.55;0.60;;;18.30;57.00;;;;;;6145281;22;93286;-66
2021/12/10 05:06:39;;;;;;;1.25;0.60;;;18.30;57.10;;;;;;6146555;22;93678;-72
2021/12/10 05:09:08;;;;;;;1.90;0.70;;;18.30;57.00;;;;;;6146401;22;92032;-73
2021/12/10 05:11:34;;;;;;;2.58;0.70;;;18.30;57.10;;;;;;6146376;22;92224;-66
2021/12/10 05:14:00;;;;;;;1.20;0.50;;;18.20;57.00;;;;;;6144539;22;94032;-70
2021/12/10 05:16:26;;;;;;;3.22;0.60;;;18.20;57.10;;;;;;6145625;22;92941;-73
2021/12/10 05:18:59;;;;;;;3.03;0.73;;;18.20;57.00;;;;;;6146295;22;92089;-71
2021/12/10 05:21:29;;;;;;;2.05;0.70;;;18.20;57.10;;;;;;6145999;22;92116;-68
2021/12/10 05:23:56;;;;;;;1.80;0.73;;;18.20;57.00;;;;;;6145831;22;92627;-65
2021/12/10 05:26:22;;;;;;;2.10;0.65;;;18.20;57.00;;;;;;6144175;22;94293;-68
2021/12/10 05:28:48;;;;;;;1.27;0.40;;;18.20;57.10;;;;;;6145687;22;92735;-69
2021/12/10 05:31:14;;;;;;;1.33;0.55;;;18.20;57.00;;;;;;6146277;22;91835;-73
2021/12/10 05:33:39;;;;;;;1.33;0.65;;;18.20;57.10;;;;;;6143945;22;94312;-68
2021/12/10 05:36:07;;;;;;;1.00;0.50;;;18.20;57.10;;;;;;6144950;22;92138;-73
2021/12/10 05:38:33;;;;;;;1.70;0.70;;;18.20;57.10;;;;;;6144838;22;93773;-73
2021/12/10 05:41:02;;;;;;;1.75;0.50;;;18.20;57.10;;;;;;6145910;22;92715;-72
2021/12/10 05:43:28;;;;;;;1.88;0.60;;;18.20;57.10;;;;;;6145334;22;92945;-65
2021/12/10 05:45:54;;;;;;;1.35;0.50;;;18.20;57.10;;;;;;6145523;22;92973;-68
2021/12/10 05:48:20;;;;;;;2.42;0.60;;;18.20;57.10;;;;;;6144956;22;92116;-69
2021/12/10 05:50:47;;;;;;;1.27;0.75;;;18.20;57.10;;;;;;6143917;22;92604;-69
2021/12/10 05:53:13;;;;;;;2.00;0.38;;;18.20;57.20;;;;;;6146529;22;92831;-73
2021/12/10 05:55:41;;;;;;;1.48;0.70;;;18.20;57.10;;;;;;6145567;22;92918;-70
2021/12/10 05:58:07;;;;;;;3.03;0.45;;;18.10;57.10;;;;;;6144958;22;93012;-63
2021/12/10 06:00:37;;;;;;;4.85;0.50;;;18.10;57.10;;;;;;6144822;22;92201;-68
2021/12/10 06:03:03;;;;;;;1.50;0.60;;;18.10;57.10;;;;;;6144293;22;94168;-69
2021/12/10 06:05:31;;;;;;;1.05;0.40;;;18.10;57.10;;;;;;6143954;22;95276;-66
2021/12/10 06:07:57;;;;;;;1.73;0.60;;;18.10;57.20;;;;;;6145597;22;92990;-71
2021/12/10 06:10:23;;;;;;;1.38;0.50;;;18.10;57.20;;;;;;6145276;22;92188;-71
2021/12/10 06:12:50;;;;;;;0.82;0.50;;;18.10;57.20;;;;;;6145014;22;92881;-72
2021/12/10 06:15:18;;;;;;;1.48;0.50;;;18.10;57.20;;;;;;6145506;22;92852;-69
2021/12/10 06:17:44;;;;;;;1.17;0.52;;;18.10;57.20;;;;;;6144689;22;92831;-71
2021/12/10 06:20:14;;;;;;;1.48;0.40;;;18.10;57.20;;;;;;6144910;22;92273;-72
2021/12/10 06:22:40;;;;;;;3.05;0.75;;;18.10;57.20;;;;;;6144113;22;93164;-70
2021/12/10 06:25:07;;;;;;;3.17;0.50;;;18.10;57.70;;;;;;6143805;22;92771;-70
2021/12/10 06:27:33;;;;;;;1.40;0.60;;;18.10;57.20;;;;;;6144007;22;93675;-67
2021/12/10 06:30:01;;;;;;;0.82;0.50;;;18.10;57.20;;;;;;6146078;22;92713;-75
2021/12/10 06:32:26;;;;;;;1.33;0.38;;;18.10;57.20;;;;;;6144925;22;92580;-64
2021/12/10 06:34:52;;;;;;;1.38;0.52;;;18.10;57.20;;;;;;6145716;22;92820;-69
2021/12/10 06:37:18;;;;;;;2.00;0.50;;;18.10;57.20;;;;;;6145848;22;92322;-75
2021/12/10 06:39:44;;;;;;;1.55;0.43;;;18.10;57.20;;;;;;6144139;22;92656;-70
2021/12/10 06:42:10;;;;;;;1.10;0.30;;;18.10;57.20;;;;;;6145135;22;92729;-71
2021/12/10 06:44:35;;;;;;;1.77;0.45;;;18.10;57.20;;;;;;6145439;22;92755;-74
2021/12/10 06:47:05;;;;;;;1.38;0.60;;;18.10;57.20;;;;;;6146203;22;92804;-62
2021/12/10 06:49:34;;;;;;;1.65;0.60;;;18.00;57.20;;;;;;6145433;22;92900;-74
2021/12/10 06:52:01;;;;;;;2.60;0.45;;;18.10;57.20;;;;;;6144814;22;94254;-71
2021/12/10 06:54:29;;;;;;;1.92;0.57;;;18.10;57.20;;;;;;6145201;22;94224;-74
2021/12/10 06:56:56;;;;;;;1.73;0.52;;;18.00;57.20;;;;;;6145111;22;92127;-67
2021/12/10 06:59:24;;;;;;;1.65;0.52;;;18.10;57.20;;;;;;6144159;22;92309;-71
2021/12/10 07:01:50;;;;;;;0.98;0.60;;;18.00;57.20;;;;;;6143674;22;92840;-71
2021/12/10 07:04:16;;;;;;;3.08;0.90;;;18.00;57.20;;;;;;6144093;22;92804;-71
2021/12/10 07:06:45;;;;;;;2.70;0.52;;;18.00;57.20;;;;;;6144848;22;92922;-73
2021/12/10 07:09:18;;;;;;;3.95;0.50;;;18.00;57.20;;;;;;6147204;22;91628;-71
2021/12/10 07:11:45;;;;;;;2.00;0.53;;;18.00;57.20;;;;;;6146479;22;93328;-72
2021/12/10 07:14:11;;;;;;;0.70;0.40;;;18.00;57.20;;;;;;6145146;22;92986;-74
2021/12/10 07:16:37;;;;;;;1.98;0.60;;;18.10;57.30;;;;;;6146181;22;93517;-66
2021/12/10 07:19:05;;;;;;;1.33;0.70;;;18.00;57.20;;;;;;6145815;22;92855;-73
2021/12/10 07:21:32;;;;;;;0.85;0.40;;;18.00;57.20;;;;;;6145491;22;96620;-71
2021/12/10 07:24:01;;;;;;;1.15;0.40;;;18.00;57.20;;;;;;6149235;22;93150;-69
2021/12/10 07:26:28;;;;;;;1.15;0.40;;;18.00;57.20;;;;;;6157625;22;92532;-62
2021/12/10 07:28:58;;;;;;;1.00;0.50;;;18.00;57.20;;;;;;6152622;22;92136;-67
2021/12/10 07:31:24;;;;;;;0.60;0.38;;;18.00;57.20;;;;;;6147818;22;92699;-74
2021/12/10 07:33:50;;;;;;;1.17;0.40;;;18.00;57.20;;;;;;6145141;22;93118;-69
2021/12/10 07:36:17;;;;;;;1.15;0.50;;;18.00;57.20;;;;;;6145416;22;92653;-76
2021/12/10 07:38:43;;;;;;;1.65;0.50;;;18.00;57.20;;;;;;6151224;22;92859;-75
2021/12/10 07:41:09;;;;;;;2.33;0.38;;;18.00;57.30;;;;;;6147626;22;94011;-69
2021/12/10 07:43:36;;;;;;;0.88;0.47;;;18.00;57.30;;;;;;6147178;22;93214;-74
2021/12/10 07:46:04;;;;;;;1.27;0.40;;;18.00;57.30;;;;;;6145862;22;92379;-78
2021/12/10 07:48:32;;;;;;;2.33;0.50;;;18.00;57.30;;;;;;6145805;22;92056;-56
2021/12/10 07:51:03;;;;;;;3.58;0.40;;;18.00;57.50;;;;;;6145667;22;92770;-57
2021/12/10 07:53:31;;;;;;;1.83;0.50;;;18.00;57.70;;;;;;6145074;22;93171;-57
2021/12/10 07:56:00;;;;;;;0.60;0.40;;;18.00;57.80;;;;;;6146243;22;92398;-57
2021/12/10 07:58:26;;;;;;;1.58;0.30;;;18.00;57.90;;;;;;6146147;22;91696;-56
2021/12/10 08:00:51;;;;;;;6.63;0.60;;;18.00;57.90;;;;;;6143388;22;94710;-57
2021/12/10 08:03:18;;;;;;;6.78;0.73;;;18.10;57.80;;;;;;6145663;22;93338;-57
2021/12/10 08:05:44;;;;;;;3.63;0.90;;;18.20;57.60;;;;;;6145334;22;93652;-56
2021/12/10 08:08:10;;;;;;;5.13;0.93;;;18.30;57.40;;;;;;6145806;22;92518;-56
2021/12/10 08:10:39;;;;;;;5.40;1.42;;;18.40;57.20;;;;;;6145141;22;92840;-56
2021/12/10 08:13:06;;;;;;;7.28;1.50;;;18.50;56.90;;;;;;6145300;22;92698;-56
2021/12/10 08:15:32;;;;;;;6.05;1.27;;;18.60;56.70;;;;;;6146626;22;92571;-56
2021/12/10 08:17:57;;;;;;;7.95;1.55;;;18.70;56.40;;;;;;6145937;22;92210;-56
2021/12/10 08:20:25;;;;;;;11.13;2.17;;;18.70;56.20;;;;;;6146833;22;92625;-57
2021/12/10 08:22:51;;;;;;;12.52;1.98;;;18.90;56.00;;;;;;6146688;22;92168;-57
2021/12/10 08:25:20;;;;;;;3.78;1.75;;;18.90;55.70;;;;;;6144285;22;92218;-58
2021/12/10 08:27:47;;;;;;;7.60;1.80;;;19.00;55.50;;;;;;6145567;22;92178;-56
2021/12/10 08:30:16;;;;;;;6.15;1.40;;;19.10;55.80;;;;;;6136154;22;94563;-57
2021/12/10 08:32:43;;;;;;;6.68;1.73;;;19.10;55.10;;;;;;6145425;22;94016;-57
2021/12/10 08:35:12;;;;;;;9.10;2.35;;;19.20;55.00;;;;;;6144809;22;92776;-57
2021/12/10 08:37:39;;;;;;;7.45;1.60;;;19.30;54.90;;;;;;6144857;22;92062;-57
2021/12/10 08:40:08;;;;;;;4.35;1.40;;;19.40;54.70;;;;;;6145091;22;93019;-57
2021/12/10 08:42:34;;;;;;;6.28;1.30;;;19.40;54.50;;;;;;6099519;22;92825;-57
2021/12/10 08:44:59;;;;;;;9.73;1.38;;;19.50;54.20;;;;;;6161571;22;93016;-57
2021/12/10 08:47:25;;;;;;;19.25;3.90;;;19.50;53.90;;;;;;6146225;22;91729;-56
2021/12/10 08:49:51;;;;;;;35.78;4.97;;;19.60;53.60;;;;;;6144982;22;92348;-56
2021/12/10 08:52:18;;;;;;;25.23;4.32;;;19.60;53.20;;;;;;6145137;22;92349;-56
2021/12/10 08:54:45;;;;;;;29.15;5.35;;;19.70;52.80;;;;;;6143763;22;93093;-55
2021/12/10 08:57:11;;;;;;;31.20;5.38;;;19.70;52.20;;;;;;6144680;22;92672;-70
2021/12/10 08:59:38;;;;;;;20.83;4.65;;;19.70;52.00;;;;;;6143690;22;95822;-66
2021/12/10 09:02:08;;;;;;;18.73;3.78;;;19.70;52.20;;;;;;6141678;22;92801;-67
2021/12/10 09:04:34;;;;;;;26.13;4.75;;;19.70;52.40;;;;;;6144986;22;92518;-60
2021/12/10 09:07:06;;;;;;;17.23;4.30;;;19.80;52.70;;;;;;6144722;22;92332;-64
2021/12/10 09:09:34;;;;;;;17.17;3.72;;;19.80;52.90;;;;;;6145782;22;92950;-64
2021/12/10 09:12:04;;;;;;;14.82;3.47;;;19.80;53.30;;;;;;6146402;22;93355;-62
2021/12/10 09:14:37;;;;;;;13.43;3.08;;;19.90;53.50;;;;;;6145806;22;92412;-64
2021/12/10 09:17:03;;;;;;;;;;;19.90;53.70;;;;;;6145707;22;92190;-62
2021/12/10 09:19:29;;;;;;;19.27;3.83;;;19.90;54.00;;;;;;6146501;22;94005;-64
2021/12/10 09:21:56;;;;;;;22.02;4.53;;;20.00;54.40;;;;;;6143927;22;94236;-61
2021/12/10 09:24:22;;;;;;;13.45;3.80;;;20.10;55.50;;;;;;6146462;22;92809;-61
2021/12/10 09:26:53;;;;;;;15.35;3.80;;;20.20;55.90;;;;;;6144476;22;92581;-65
2021/12/10 09:29:20;;;;;;;13.50;3.20;;;20.20;55.90;;;;;;6145622;22;93278;-62
2021/12/10 09:31:46;;;;;;;15.55;4.32;;;20.30;55.60;;;;;;6145466;22;95337;-62
2021/12/10 09:34:14;;;;;;;12.80;3.35;;;20.30;55.10;;;;;;6145054;22;92889;-60
2021/12/10 09:36:40;;;;;;;15.45;3.72;;;20.30;54.80;;;;;;6144320;22;92202;-62
2021/12/10 09:39:08;;;;;;;15.18;2.95;;;20.30;54.90;;;;;;6145068;22;92542;-59
2021/12/10 09:41:33;;;;;;;13.23;2.92;;;20.40;55.20;;;;;;6144691;22;92799;-59
2021/12/10 09:43:59;;;;;;;15.75;3.03;;;20.40;55.20;;;;;;6145062;22;93555;-62
2021/12/10 09:46:25;;;;;;;8.93;2.53;;;20.40;54.70;;;;;;6144827;22;92756;-60
2021/12/10 09:48:51;;;;;;;11.05;2.83;;;20.40;54.00;;;;;;6145417;22;94341;-61
2021/12/10 09:51:19;;;;;;;16.50;3.03;;;20.40;53.60;;;;;;6141782;22;92721;-59
2021/12/10 09:53:52;;;;;;;10.23;2.70;;;20.40;53.00;;;;;;6144440;22;92611;-64
2021/12/10 09:56:19;;;;;;;13.15;2.22;;;20.40;52.50;;;;;;6144942;22;92365;-63
2021/12/10 09:58:45;;;;;;;9.98;1.98;;;20.40;51.90;;;;;;6144816;22;92672;-68
2021/12/10 10:01:21;;;;;;;10.05;2.17;;;20.40;51.60;;;;;;6145579;22;92345;-66
2021/12/10 10:03:50;;;;;;;7.68;1.90;;;20.40;51.50;;;;;;6145908;22;92792;-61
2021/12/10 10:06:18;;;;;;;8.75;2.58;;;20.40;51.40;;;;;;6145298;22;93092;-63
2021/12/10 10:08:45;;;;;;;10.45;1.73;;;20.40;51.40;;;;;;6141263;22;94550;-65
2021/12/10 10:11:18;;;;;;;10.68;1.90;;;20.30;51.20;;;;;;6143074;22;93263;-65
2021/12/10 10:13:47;;;;;;;7.55;1.52;;;20.30;52.40;;;;;;6143851;22;92974;-59
2021/12/10 10:16:13;;;;;;;10.50;1.98;;;20.20;52.20;;;;;;6143816;22;92385;-62
2021/12/10 10:18:42;;;;;;;9.55;2.15;;;20.20;52.80;;;;;;6144690;22;93095;-60
2021/12/10 10:21:13;;;;;;;9.52;2.33;;;20.20;53.10;;;;;;6144608;22;92916;-62
2021/12/10 10:23:41;;;;;;;9.27;1.95;;;20.10;53.20;;;;;;6141933;22;92592;-61
2021/12/10 10:26:12;;;;;;;5.10;1.55;;;20.10;53.20;;;;;;6145089;22;92045;-63
2021/12/10 10:28:38;;;;;;;8.60;1.63;;;20.20;53.40;;;;;;6143697;22;93445;-61
2021/12/10 10:31:11;;;;;;;9.52;2.03;;;20.20;53.50;;;;;;6144990;22;92801;-60
2021/12/10 10:33:39;;;;;;;8.75;1.70;;;20.20;53.30;;;;;;6144297;22;92976;-60
2021/12/10 10:36:17;;;;;;;12.20;2.28;;;20.30;53.40;;;;;;6144337;22;92586;-65
2021/12/10 10:38:47;;;;;;;7.80;1.80;;;20.30;53.10;;;;;;6142819;22;96365;-61
2021/12/10 10:41:14;;;;;;;8.40;1.80;;;20.30;53.00;;;;;;6144010;22;92878;-61
2021/12/10 10:43:40;;;;;;;9.45;1.80;;;20.30;52.70;;;;;;6146672;22;92035;-58
2021/12/10 10:46:05;;;;;;;5.18;1.40;;;20.30;52.40;;;;;;6147136;22;92299;-61
2021/12/10 10:48:32;;;;;;;6.70;1.88;;;20.30;52.20;;;;;;6145105;22;93379;-62
2021/12/10 10:51:40;;;;;;;10.55;2.08;;;20.40;51.90;;;;;;6144365;22;94142;-61
2021/12/10 10:54:10;;;;;;;4.20;1.25;;;20.30;51.70;;;;;;6145822;22;92171;-59
2021/12/10 10:56:43;;;;;;;9.40;1.67;;;20.40;51.50;;;;;;6146729;22;92350;-60
2021/12/10 10:59:24;;;;;;;6.20;1.40;;;20.30;51.40;;;;;;6144388;22;97337;-58
2021/12/10 11:02:06;;;;;;;9.13;1.30;;;20.30;51.20;;;;;;6145965;22;94221;-61
2021/12/10 11:04:44;;;;;;;7.05;1.45;;;20.30;51.10;;;;;;6145642;22;92857;-61
2021/12/10 11:07:10;;;;;;;5.60;1.27;;;20.40;51.00;;;;;;6146257;22;92619;-59
2021/12/10 11:09:46;;;;;;;7.38;1.40;;;20.40;50.80;;;;;;6145345;22;93082;-58
2021/12/10 11:12:20;;;;;;;8.35;1.52;;;20.40;50.80;;;;;;6145665;22;94758;-60
2021/12/10 11:14:50;;;;;;;4.35;1.35;;;20.30;50.60;;;;;;6144738;22;92601;-59
2021/12/10 11:17:25;;;;;;;8.25;1.80;;;20.30;50.60;;;;;;6145227;22;91872;-63
2021/12/10 11:19:59;;;;;;;5.10;1.38;;;20.40;50.70;;;;;;6144410;22;94540;-59
2021/12/10 11:22:26;;;;;;;6.35;1.00;;;20.40;50.60;;;;;;6145267;22;92732;-59
2021/12/10 11:24:57;;;;;;;4.28;1.00;;;20.40;50.50;;;;;;6144703;22;93932;-61
2021/12/10 11:27:28;;;;;;;6.72;1.40;;;20.40;50.50;;;;;;6145392;22;92149;-59
2021/12/10 11:30:19;;;;;;;11.95;1.20;;;20.30;50.60;;;;;;6143953;22;94794;-58
2021/12/10 11:33:01;;;;;;;4.07;1.00;;;20.40;50.70;;;;;;6145111;22;94066;-59
2021/12/10 11:35:38;;;;;;;5.55;1.08;;;20.40;50.70;;;;;;6147268;22;92432;-61
2021/12/10 11:38:24;;;;;;;4.75;1.10;;;20.40;50.70;;;;;;6143437;22;92846;-62
2021/12/10 11:41:03;;;;;;;7.10;1.52;;;20.30;50.60;;;;;;6145901;22;93007;-62
2021/12/10 11:49:09;;;;;;;8.50;1.30;;;20.30;51.70;;;;;;6145978;22;92748;-61
2021/12/10 11:51:49;;;;;;;5.60;1.42;;;20.30;51.90;;;;;;6141811;22;95227;-60
2021/12/10 11:54:18;;;;;;;7.68;0.98;;;20.40;51.90;;;;;;6144611;22;93143;-61
2021/12/10 11:56:48;;;;;;;4.93;1.23;;;20.40;51.90;;;;;;6145437;22;92313;-61
2021/12/10 11:59:18;;;;;;;1.98;0.80;;;20.40;51.90;;;;;;6145047;22;93161;-62
2021/12/10 12:01:56;;;;;;;7.70;1.08;;;20.40;52.00;;;;;;6144056;22;94485;-60
2021/12/10 12:04:29;;;;;;;4.75;0.90;;;20.40;52.30;;;;;;6143780;22;92111;-59
2021/12/10 12:07:16;;;;;;;6.35;1.00;;;20.40;52.50;;;;;;6144536;22;92435;-63
2021/12/10 12:09:43;;;;;;;1.73;0.73;;;20.40;52.70;;;;;;6145720;22;91399;-61
2021/12/10 12:12:10;;;;;;;3.72;0.80;;;20.40;52.90;;;;;;6145607;22;93141;-64
2021/12/10 12:14:37;;;;;;;4.10;1.10;;;20.50;53.00;;;;;;6143921;22;92830;-63
2021/12/10 12:17:06;;;;;;;4.25;1.27;;;20.50;53.20;;;;;;6143257;22;93735;-63
2021/12/10 12:19:35;;;;;;;2.60;0.85;;;20.50;53.30;;;;;;6144860;22;92629;-62
2021/12/10 12:25:09;;;;;;;3.75;0.95;;;20.50;52.80;;;;;;6091789;22;93217;-61
2021/12/10 12:27:35;;;;;;;4.13;0.90;;;20.60;53.10;;;;;;6144172;22;92553;-62
2021/12/10 12:30:06;;;;;;;2.83;0.70;;;20.60;53.30;;;;;;6142808;22;92463;-62
2021/12/10 12:32:38;;;;;;;4.18;1.38;;;20.60;53.40;;;;;;6143732;22;94595;-66
2021/12/10 12:35:20;;;;;;;6.30;0.88;;;20.60;53.60;;;;;;6145974;22;92288;-60
2021/12/10 12:37:46;;;;;;;2.40;0.80;;;20.70;53.90;;;;;;6144881;22;92217;-56
2021/12/10 12:40:12;;;;;;;3.00;0.70;;;20.70;53.90;;;;;;6144325;22;92752;-58
2021/12/10 12:42:45;;;;;;;6.20;0.75;;;20.70;54.00;;;;;;6144414;22;93695;-61
2021/12/10 12:45:23;;;;;;;5.82;0.77;;;20.70;53.80;;;;;;6142020;22;96142;-59
2021/12/10 12:47:54;;;;;;;3.95;0.90;;;20.70;54.20;;;;;;6144882;22;92627;-60
2021/12/10 12:50:26;;;;;;;12.35;1.33;;;20.70;54.20;;;;;;6143816;22;93257;-61
2021/12/10 12:53:04;;;;;;;3.80;0.80;;;20.70;54.40;;;;;;6144665;22;93078;-61
2021/12/10 12:56:11;;;;;;;3.17;1.00;;;20.70;54.50;;;;;;6143838;22;92374;-61
2021/12/10 12:58:51;;;;;;;4.53;0.90;;;20.70;54.60;;;;;;6081966;23;93078;-61
2021/12/10 13:01:45;;;;;;;5.85;1.02;;;20.70;54.70;;;;;;6081359;23;91663;-61
2021/12/10 13:04:19;;;;;;;3.70;0.70;;;20.70;54.90;;;;;;6127561;22;93252;-61
2021/12/10 13:06:51;;;;;;;2.53;0.60;;;20.70;55.10;;;;;;6142549;22;92731;-58
2021/12/10 13:09:26;;;;;;;2.25;0.70;;;20.70;55.20;;;;;;6145382;22;93779;-59
2021/12/10 13:14:45;;;;;;;5.70;0.95;;;20.70;55.00;;;;;;6144872;22;93002;-59
2021/12/10 13:17:20;;;;;;;4.18;0.68;;;20.70;54.70;;;;;;6145301;22;92584;-61